Rossville, Ohio
Current Conditions -  °F | °C
As of 4:53 AM on Sunday 25 Jan 2015 (Local Time) from KHAO Reporting Station
Haze Haze  
Wind Chill:   Ceiling: Unl
Heat Index:   Visibility: 6mi
Dew Point: -1°   Wind: 3mph
Humidity: 89%   Direction: 110°ESE
Pressure: 29.75"   Gusts: NA
Location:  39.4158°N, 84.6488°W
Report Text: KHAO 250953Z AUTO 11003KT 6SM BR CLR 01/M01 A2975 RMK AO2 SLP079 T00061011
Loading
Personal Weather Stations






























Interactive Weather Map New forecast layout! Learn more

10-Day Weather Forecast

Advertisements
Track Severe Weather on mobile